sensor_id;sensor_type;location;lat;lon;timestamp;P1;durP1;ratioP1;P2;durP2;ratioP2
15130;SDS011;7666;50.920;4.628;2023-02-26T00:00:45;8.90;;;3.97;;
15130;SDS011;7666;50.920;4.628;2023-02-26T00:03:31;9.43;;;4.33;;
15130;SDS011;7666;50.920;4.628;2023-02-26T00:06:17;10.17;;;4.20;;
15130;SDS011;7666;50.920;4.628;2023-02-26T00:09:04;6.10;;;3.83;;
15130;SDS011;7666;50.920;4.628;2023-02-26T00:11:51;7.67;;;4.00;;
15130;SDS011;7666;50.920;4.628;2023-02-26T00:14:37;8.67;;;3.77;;
15130;SDS011;7666;50.920;4.628;2023-02-26T00:20:26;5.83;;;3.33;;
15130;SDS011;7666;50.920;4.628;2023-02-26T00:23:12;10.13;;;4.83;;
15130;SDS011;7666;50.920;4.628;2023-02-26T00:25:59;7.03;;;3.73;;
15130;SDS011;7666;50.920;4.628;2023-02-26T00:28:45;8.93;;;4.23;;
15130;SDS011;7666;50.920;4.628;2023-02-26T00:31:31;8.13;;;3.90;;
15130;SDS011;7666;50.920;4.628;2023-02-26T00:34:17;8.70;;;3.87;;
15130;SDS011;7666;50.920;4.628;2023-02-26T00:41:05;7.77;;;4.20;;
15130;SDS011;7666;50.920;4.628;2023-02-26T00:43:28;7.57;;;3.83;;
15130;SDS011;7666;50.920;4.628;2023-02-26T00:49:26;10.87;;;4.20;;
15130;SDS011;7666;50.920;4.628;2023-02-26T00:55:20;7.73;;;4.20;;
15130;SDS011;7666;50.920;4.628;2023-02-26T00:58:06;8.67;;;3.97;;
15130;SDS011;7666;50.920;4.628;2023-02-26T01:00:52;8.27;;;4.10;;
15130;SDS011;7666;50.920;4.628;2023-02-26T01:03:38;9.37;;;4.80;;
15130;SDS011;7666;50.920;4.628;2023-02-26T01:06:26;9.43;;;4.20;;
15130;SDS011;7666;50.920;4.628;2023-02-26T01:12:09;10.27;;;4.00;;
15130;SDS011;7666;50.920;4.628;2023-02-26T01:15:02;9.30;;;3.93;;
15130;SDS011;7666;50.920;4.628;2023-02-26T01:17:50;8.80;;;4.00;;
15130;SDS011;7666;50.920;4.628;2023-02-26T01:20:43;8.10;;;3.80;;
15130;SDS011;7666;50.920;4.628;2023-02-26T01:23:37;8.57;;;4.27;;
15130;SDS011;7666;50.920;4.628;2023-02-26T01:26:28;9.43;;;3.90;;
15130;SDS011;7666;50.920;4.628;2023-02-26T01:29:14;13.87;;;4.27;;
15130;SDS011;7666;50.920;4.628;2023-02-26T01:32:03;9.30;;;4.43;;
15130;SDS011;7666;50.920;4.628;2023-02-26T01:35:12;8.23;;;4.03;;
15130;SDS011;7666;50.920;4.628;2023-02-26T01:44:11;12.50;;;4.97;;
15130;SDS011;7666;50.920;4.628;2023-02-26T01:47:13;11.77;;;4.10;;
15130;SDS011;7666;50.920;4.628;2023-02-26T01:50:16;8.73;;;3.67;;
15130;SDS011;7666;50.920;4.628;2023-02-26T01:53:15;9.40;;;4.00;;
15130;SDS011;7666;50.920;4.628;2023-02-26T01:56:03;10.20;;;3.93;;
15130;SDS011;7666;50.920;4.628;2023-02-26T01:58:54;10.47;;;4.07;;
15130;SDS011;7666;50.920;4.628;2023-02-26T02:01:40;7.20;;;3.80;;
15130;SDS011;7666;50.920;4.628;2023-02-26T02:04:27;8.90;;;3.93;;
15130;SDS011;7666;50.920;4.628;2023-02-26T02:07:14;10.97;;;4.03;;
15130;SDS011;7666;50.920;4.628;2023-02-26T02:10:01;7.63;;;3.53;;
15130;SDS011;7666;50.920;4.628;2023-02-26T02:12:51;8.90;;;3.93;;
15130;SDS011;7666;50.920;4.628;2023-02-26T02:15:53;7.97;;;3.40;;
15130;SDS011;7666;50.920;4.628;2023-02-26T02:31:44;9.37;;;3.53;;
15130;SDS011;7666;50.920;4.628;2023-02-26T02:34:57;10.07;;;3.80;;
15130;SDS011;7666;50.920;4.628;2023-02-26T02:41:07;9.57;;;3.30;;
15130;SDS011;7666;50.920;4.628;2023-02-26T02:44:00;9.33;;;3.20;;
15130;SDS011;7666;50.920;4.628;2023-02-26T02:46:50;10.53;;;3.47;;
15130;SDS011;7666;50.920;4.628;2023-02-26T02:50:23;7.90;;;3.70;;
15130;SDS011;7666;50.920;4.628;2023-02-26T02:52:56;10.83;;;3.63;;
15130;SDS011;7666;50.920;4.628;2023-02-26T02:55:58;10.77;;;3.57;;
15130;SDS011;7666;50.920;4.628;2023-02-26T03:04:55;8.43;;;3.10;;
15130;SDS011;7666;50.920;4.628;2023-02-26T03:07:49;9.83;;;3.13;;
15130;SDS011;7666;50.920;4.628;2023-02-26T03:10:41;9.77;;;3.70;;
15130;SDS011;7666;50.920;4.628;2023-02-26T03:13:28;10.00;;;3.23;;
15130;SDS011;7666;50.920;4.628;2023-02-26T03:19:44;9.57;;;3.53;;
15130;SDS011;7666;50.920;4.628;2023-02-26T03:22:49;5.93;;;3.33;;
15130;SDS011;7666;50.920;4.628;2023-02-26T03:26:19;6.73;;;3.07;;
15130;SDS011;7666;50.920;4.628;2023-02-26T03:28:53;11.07;;;3.20;;
15130;SDS011;7666;50.920;4.628;2023-02-26T03:34:46;9.83;;;3.87;;
15130;SDS011;7666;50.920;4.628;2023-02-26T03:37:38;10.73;;;3.40;;
15130;SDS011;7666;50.920;4.628;2023-02-26T03:40:36;8.80;;;3.23;;
15130;SDS011;7666;50.920;4.628;2023-02-26T03:43:36;9.13;;;3.17;;
15130;SDS011;7666;50.920;4.628;2023-02-26T03:46:28;9.50;;;3.50;;
15130;SDS011;7666;50.920;4.628;2023-02-26T03:49:40;9.50;;;3.30;;
15130;SDS011;7666;50.920;4.628;2023-02-26T03:52:34;9.63;;;3.67;;
15130;SDS011;7666;50.920;4.628;2023-02-26T03:55:29;8.03;;;3.30;;
15130;SDS011;7666;50.920;4.628;2023-02-26T03:58:19;7.00;;;3.40;;
15130;SDS011;7666;50.920;4.628;2023-02-26T04:01:08;9.03;;;2.73;;
15130;SDS011;7666;50.920;4.628;2023-02-26T04:04:00;8.90;;;3.57;;
15130;SDS011;7666;50.920;4.628;2023-02-26T04:06:50;8.47;;;2.93;;
15130;SDS011;7666;50.920;4.628;2023-02-26T04:09:48;6.60;;;3.13;;
15130;SDS011;7666;50.920;4.628;2023-02-26T04:12:35;6.83;;;2.70;;
15130;SDS011;7666;50.920;4.628;2023-02-26T04:15:21;8.03;;;2.93;;
15130;SDS011;7666;50.920;4.628;2023-02-26T04:18:07;6.30;;;2.70;;
15130;SDS011;7666;50.920;4.628;2023-02-26T04:20:53;8.03;;;2.57;;
15130;SDS011;7666;50.920;4.628;2023-02-26T04:23:39;7.80;;;2.80;;
15130;SDS011;7666;50.920;4.628;2023-02-26T04:26:25;9.20;;;2.37;;
15130;SDS011;7666;50.920;4.628;2023-02-26T04:29:11;10.30;;;3.07;;
15130;SDS011;7666;50.920;4.628;2023-02-26T04:31:57;6.10;;;2.63;;
15130;SDS011;7666;50.920;4.628;2023-02-26T04:34:43;9.03;;;2.27;;
15130;SDS011;7666;50.920;4.628;2023-02-26T04:37:29;6.60;;;2.47;;
15130;SDS011;7666;50.920;4.628;2023-02-26T04:40:15;6.07;;;2.80;;
15130;SDS011;7666;50.920;4.628;2023-02-26T04:43:01;8.73;;;2.70;;
15130;SDS011;7666;50.920;4.628;2023-02-26T04:45:47;9.50;;;2.80;;
15130;SDS011;7666;50.920;4.628;2023-02-26T04:48:34;8.53;;;3.10;;
15130;SDS011;7666;50.920;4.628;2023-02-26T04:51:20;6.83;;;2.33;;
15130;SDS011;7666;50.920;4.628;2023-02-26T04:54:06;6.37;;;2.30;;
15130;SDS011;7666;50.920;4.628;2023-02-26T04:56:52;6.00;;;2.40;;
15130;SDS011;7666;50.920;4.628;2023-02-26T04:59:38;5.53;;;2.13;;
15130;SDS011;7666;50.920;4.628;2023-02-26T05:02:24;7.07;;;2.60;;
15130;SDS011;7666;50.920;4.628;2023-02-26T05:05:10;7.73;;;2.17;;
15130;SDS011;7666;50.920;4.628;2023-02-26T05:07:56;8.60;;;2.17;;
15130;SDS011;7666;50.920;4.628;2023-02-26T05:10:42;6.90;;;2.10;;
15130;SDS011;7666;50.920;4.628;2023-02-26T05:13:28;6.73;;;2.40;;
15130;SDS011;7666;50.920;4.628;2023-02-26T05:16:14;8.17;;;2.47;;
15130;SDS011;7666;50.920;4.628;2023-02-26T05:19:00;8.23;;;2.63;;
15130;SDS011;7666;50.920;4.628;2023-02-26T05:21:46;8.80;;;2.27;;
15130;SDS011;7666;50.920;4.628;2023-02-26T05:24:33;5.33;;;2.03;;
15130;SDS011;7666;50.920;4.628;2023-02-26T05:27:19;5.93;;;1.87;;
15130;SDS011;7666;50.920;4.628;2023-02-26T05:30:05;4.27;;;2.10;;
15130;SDS011;7666;50.920;4.628;2023-02-26T05:32:52;9.03;;;2.50;;
15130;SDS011;7666;50.920;4.628;2023-02-26T05:35:39;5.37;;;2.17;;
15130;SDS011;7666;50.920;4.628;2023-02-26T05:38:25;8.80;;;2.47;;
15130;SDS011;7666;50.920;4.628;2023-02-26T05:41:11;7.17;;;2.40;;
15130;SDS011;7666;50.920;4.628;2023-02-26T05:43:57;8.00;;;2.03;;
15130;SDS011;7666;50.920;4.628;2023-02-26T05:46:43;5.13;;;2.10;;
15130;SDS011;7666;50.920;4.628;2023-02-26T05:49:29;8.53;;;2.10;;
15130;SDS011;7666;50.920;4.628;2023-02-26T05:52:15;8.70;;;2.10;;
15130;SDS011;7666;50.920;4.628;2023-02-26T05:55:01;5.20;;;2.00;;
15130;SDS011;7666;50.920;4.628;2023-02-26T05:57:48;9.40;;;2.67;;
15130;SDS011;7666;50.920;4.628;2023-02-26T06:00:34;7.40;;;2.73;;
15130;SDS011;7666;50.920;4.628;2023-02-26T06:03:19;5.33;;;2.00;;
15130;SDS011;7666;50.920;4.628;2023-02-26T06:06:05;8.33;;;2.20;;
15130;SDS011;7666;50.920;4.628;2023-02-26T06:08:52;4.23;;;1.90;;
15130;SDS011;7666;50.920;4.628;2023-02-26T06:11:38;5.93;;;2.00;;
15130;SDS011;7666;50.920;4.628;2023-02-26T06:14:24;5.33;;;2.00;;
15130;SDS011;7666;50.920;4.628;2023-02-26T06:17:10;5.90;;;1.80;;
15130;SDS011;7666;50.920;4.628;2023-02-26T06:19:56;6.00;;;1.87;;
15130;SDS011;7666;50.920;4.628;2023-02-26T06:22:42;5.17;;;2.03;;
15130;SDS011;7666;50.920;4.628;2023-02-26T06:25:28;9.27;;;2.03;;
15130;SDS011;7666;50.920;4.628;2023-02-26T06:28:14;6.40;;;1.70;;
15130;SDS011;7666;50.920;4.628;2023-02-26T06:31:00;9.63;;;2.10;;
15130;SDS011;7666;50.920;4.628;2023-02-26T06:33:46;6.07;;;1.90;;
15130;SDS011;7666;50.920;4.628;2023-02-26T06:36:32;7.37;;;1.90;;
15130;SDS011;7666;50.920;4.628;2023-02-26T06:39:19;7.47;;;2.07;;
15130;SDS011;7666;50.920;4.628;2023-02-26T06:42:05;4.80;;;1.67;;
15130;SDS011;7666;50.920;4.628;2023-02-26T06:44:51;6.97;;;1.90;;
15130;SDS011;7666;50.920;4.628;2023-02-26T06:47:37;5.40;;;1.93;;
15130;SDS011;7666;50.920;4.628;2023-02-26T06:50:22;7.97;;;1.73;;
15130;SDS011;7666;50.920;4.628;2023-02-26T06:53:08;6.20;;;1.53;;
15130;SDS011;7666;50.920;4.628;2023-02-26T06:55:55;6.77;;;2.47;;
15130;SDS011;7666;50.920;4.628;2023-02-26T06:58:41;7.03;;;1.90;;
15130;SDS011;7666;50.920;4.628;2023-02-26T07:01:27;8.70;;;2.13;;
15130;SDS011;7666;50.920;4.628;2023-02-26T07:04:13;4.37;;;1.50;;
15130;SDS011;7666;50.920;4.628;2023-02-26T07:06:59;4.53;;;1.73;;
15130;SDS011;7666;50.920;4.628;2023-02-26T07:09:45;5.10;;;1.77;;
15130;SDS011;7666;50.920;4.628;2023-02-26T07:12:31;5.60;;;2.17;;
15130;SDS011;7666;50.920;4.628;2023-02-26T07:15:17;5.87;;;1.80;;
15130;SDS011;7666;50.920;4.628;2023-02-26T07:18:03;3.17;;;1.77;;
15130;SDS011;7666;50.920;4.628;2023-02-26T07:20:49;6.73;;;2.27;;
15130;SDS011;7666;50.920;4.628;2023-02-26T07:23:35;4.80;;;1.80;;
15130;SDS011;7666;50.920;4.628;2023-02-26T07:26:21;2.60;;;1.20;;
15130;SDS011;7666;50.920;4.628;2023-02-26T07:29:07;5.37;;;1.50;;
15130;SDS011;7666;50.920;4.628;2023-02-26T07:31:53;4.93;;;1.73;;
15130;SDS011;7666;50.920;4.628;2023-02-26T07:34:39;6.63;;;1.93;;
15130;SDS011;7666;50.920;4.628;2023-02-26T07:37:25;9.07;;;2.17;;
15130;SDS011;7666;50.920;4.628;2023-02-26T07:40:11;5.93;;;2.10;;
15130;SDS011;7666;50.920;4.628;2023-02-26T07:42:58;6.13;;;1.53;;
15130;SDS011;7666;50.920;4.628;2023-02-26T07:45:44;4.90;;;1.50;;
15130;SDS011;7666;50.920;4.628;2023-02-26T07:48:30;5.50;;;1.80;;
15130;SDS011;7666;50.920;4.628;2023-02-26T07:51:16;5.33;;;1.60;;
15130;SDS011;7666;50.920;4.628;2023-02-26T07:54:02;6.20;;;1.83;;
15130;SDS011;7666;50.920;4.628;2023-02-26T07:56:48;6.50;;;1.70;;
15130;SDS011;7666;50.920;4.628;2023-02-26T07:59:34;4.87;;;1.97;;
15130;SDS011;7666;50.920;4.628;2023-02-26T08:02:20;5.20;;;1.57;;
15130;SDS011;7666;50.920;4.628;2023-02-26T08:05:07;5.07;;;1.63;;
15130;SDS011;7666;50.920;4.628;2023-02-26T08:07:54;5.00;;;1.40;;
15130;SDS011;7666;50.920;4.628;2023-02-26T08:10:40;4.07;;;1.30;;
15130;SDS011;7666;50.920;4.628;2023-02-26T08:13:26;5.13;;;1.63;;
15130;SDS011;7666;50.920;4.628;2023-02-26T08:16:12;5.80;;;1.47;;
15130;SDS011;7666;50.920;4.628;2023-02-26T08:18:58;5.43;;;1.67;;
15130;SDS011;7666;50.920;4.628;2023-02-26T08:21:44;4.63;;;1.73;;
15130;SDS011;7666;50.920;4.628;2023-02-26T08:24:30;3.27;;;1.50;;
15130;SDS011;7666;50.920;4.628;2023-02-26T08:27:17;6.17;;;1.40;;
15130;SDS011;7666;50.920;4.628;2023-02-26T08:30:03;4.60;;;1.60;;
15130;SDS011;7666;50.920;4.628;2023-02-26T08:32:51;4.30;;;1.40;;
15130;SDS011;7666;50.920;4.628;2023-02-26T08:35:37;3.53;;;1.50;;
15130;SDS011;7666;50.920;4.628;2023-02-26T08:38:24;4.03;;;1.40;;
15130;SDS011;7666;50.920;4.628;2023-02-26T08:41:10;4.10;;;1.33;;
15130;SDS011;7666;50.920;4.628;2023-02-26T08:43:59;3.73;;;1.60;;
15130;SDS011;7666;50.920;4.628;2023-02-26T08:46:46;4.10;;;1.10;;
15130;SDS011;7666;50.920;4.628;2023-02-26T08:49:32;4.70;;;1.10;;
15130;SDS011;7666;50.920;4.628;2023-02-26T08:52:18;4.77;;;1.30;;
15130;SDS011;7666;50.920;4.628;2023-02-26T08:55:05;2.80;;;1.17;;
15130;SDS011;7666;50.920;4.628;2023-02-26T08:57:51;4.67;;;1.67;;
15130;SDS011;7666;50.920;4.628;2023-02-26T09:00:37;4.03;;;1.70;;
15130;SDS011;7666;50.920;4.628;2023-02-26T09:03:23;4.90;;;1.23;;
15130;SDS011;7666;50.920;4.628;2023-02-26T09:06:09;3.90;;;1.07;;
15130;SDS011;7666;50.920;4.628;2023-02-26T09:08:56;2.23;;;1.00;;
15130;SDS011;7666;50.920;4.628;2023-02-26T09:11:42;6.33;;;1.40;;
15130;SDS011;7666;50.920;4.628;2023-02-26T09:14:28;3.40;;;1.10;;
15130;SDS011;7666;50.920;4.628;2023-02-26T09:17:14;3.57;;;1.40;;
15130;SDS011;7666;50.920;4.628;2023-02-26T09:20:00;4.37;;;1.20;;
15130;SDS011;7666;50.920;4.628;2023-02-26T09:22:46;4.13;;;1.10;;
15130;SDS011;7666;50.920;4.628;2023-02-26T09:25:32;3.03;;;1.30;;
15130;SDS011;7666;50.920;4.628;2023-02-26T09:28:17;3.90;;;1.37;;
15130;SDS011;7666;50.920;4.628;2023-02-26T09:31:04;4.47;;;1.20;;
15130;SDS011;7666;50.920;4.628;2023-02-26T09:33:51;3.57;;;1.23;;
15130;SDS011;7666;50.920;4.628;2023-02-26T09:36:37;2.10;;;1.10;;
15130;SDS011;7666;50.920;4.628;2023-02-26T09:39:23;4.40;;;1.43;;
15130;SDS011;7666;50.920;4.628;2023-02-26T09:45:26;2.57;;;1.73;;
15130;SDS011;7666;50.920;4.628;2023-02-26T09:48:17;2.97;;;1.03;;
15130;SDS011;7666;50.920;4.628;2023-02-26T09:51:17;2.30;;;1.20;;
15130;SDS011;7666;50.920;4.628;2023-02-26T09:54:11;3.23;;;1.10;;
15130;SDS011;7666;50.920;4.628;2023-02-26T09:57:28;6.23;;;1.73;;
15130;SDS011;7666;50.920;4.628;2023-02-26T10:00:28;4.57;;;1.40;;
15130;SDS011;7666;50.920;4.628;2023-02-26T10:06:20;2.83;;;0.90;;
15130;SDS011;7666;50.920;4.628;2023-02-26T10:12:33;4.67;;;1.00;;
15130;SDS011;7666;50.920;4.628;2023-02-26T10:15:26;3.07;;;1.00;;
15130;SDS011;7666;50.920;4.628;2023-02-26T10:18:17;3.23;;;1.27;;
15130;SDS011;7666;50.920;4.628;2023-02-26T10:21:16;1.87;;;1.20;;
15130;SDS011;7666;50.920;4.628;2023-02-26T10:24:12;2.93;;;1.10;;
15130;SDS011;7666;50.920;4.628;2023-02-26T10:27:06;3.30;;;1.00;;
15130;SDS011;7666;50.920;4.628;2023-02-26T10:30:09;3.70;;;1.47;;
15130;SDS011;7666;50.920;4.628;2023-02-26T10:35:57;2.60;;;0.90;;
15130;SDS011;7666;50.920;4.628;2023-02-26T10:38:57;2.83;;;0.80;;
15130;SDS011;7666;50.920;4.628;2023-02-26T10:41:48;5.00;;;0.70;;
15130;SDS011;7666;50.920;4.628;2023-02-26T10:48:23;3.00;;;0.90;;
15130;SDS011;7666;50.920;4.628;2023-02-26T10:51:33;3.40;;;1.13;;
15130;SDS011;7666;50.920;4.628;2023-02-26T10:54:38;2.30;;;0.93;;
15130;SDS011;7666;50.920;4.628;2023-02-26T10:57:59;1.90;;;0.80;;
15130;SDS011;7666;50.920;4.628;2023-02-26T11:01:00;1.63;;;0.70;;
15130;SDS011;7666;50.920;4.628;2023-02-26T11:03:48;2.10;;;1.00;;
15130;SDS011;7666;50.920;4.628;2023-02-26T11:06:54;4.77;;;1.07;;
15130;SDS011;7666;50.920;4.628;2023-02-26T11:09:43;2.00;;;0.80;;
15130;SDS011;7666;50.920;4.628;2023-02-26T11:12:31;2.73;;;0.80;;
15130;SDS011;7666;50.920;4.628;2023-02-26T11:15:19;1.13;;;0.70;;
15130;SDS011;7666;50.920;4.628;2023-02-26T11:18:11;2.10;;;0.70;;
15130;SDS011;7666;50.920;4.628;2023-02-26T11:21:02;3.33;;;0.80;;
15130;SDS011;7666;50.920;4.628;2023-02-26T11:24:04;1.90;;;0.70;;
15130;SDS011;7666;50.920;4.628;2023-02-26T11:26:58;2.27;;;1.10;;
15130;SDS011;7666;50.920;4.628;2023-02-26T11:29:52;2.20;;;0.90;;
15130;SDS011;7666;50.920;4.628;2023-02-26T11:32:41;2.03;;;0.87;;
15130;SDS011;7666;50.920;4.628;2023-02-26T11:35:29;0.93;;;0.70;;
15130;SDS011;7666;50.920;4.628;2023-02-26T11:38:17;3.53;;;0.97;;
15130;SDS011;7666;50.920;4.628;2023-02-26T11:41:06;1.27;;;0.87;;
15130;SDS011;7666;50.920;4.628;2023-02-26T11:44:15;3.03;;;0.90;;
15130;SDS011;7666;50.920;4.628;2023-02-26T11:47:20;1.60;;;0.70;;
15130;SDS011;7666;50.920;4.628;2023-02-26T11:50:29;1.93;;;0.80;;
15130;SDS011;7666;50.920;4.628;2023-02-26T11:53:18;2.37;;;0.87;;
15130;SDS011;7666;50.920;4.628;2023-02-26T11:58:57;3.13;;;0.93;;
15130;SDS011;7666;50.920;4.628;2023-02-26T12:01:50;2.47;;;1.00;;
15130;SDS011;7666;50.920;4.628;2023-02-26T12:04:38;2.60;;;0.90;;
15130;SDS011;7666;50.920;4.628;2023-02-26T12:07:29;1.83;;;0.80;;
15130;SDS011;7666;50.920;4.628;2023-02-26T12:10:21;1.60;;;0.90;;
15130;SDS011;7666;50.920;4.628;2023-02-26T12:13:24;1.77;;;0.73;;
15130;SDS011;7666;50.920;4.628;2023-02-26T12:16:18;3.73;;;0.90;;
15130;SDS011;7666;50.920;4.628;2023-02-26T12:19:16;1.27;;;0.80;;
15130;SDS011;7666;50.920;4.628;2023-02-26T12:35:35;1.97;;;0.77;;
15130;SDS011;7666;50.920;4.628;2023-02-26T12:38:07;2.67;;;0.80;;
15130;SDS011;7666;50.920;4.628;2023-02-26T12:41:16;1.60;;;0.97;;
15130;SDS011;7666;50.920;4.628;2023-02-26T12:44:25;3.53;;;1.20;;
15130;SDS011;7666;50.920;4.628;2023-02-26T12:57:10;1.43;;;0.70;;
15130;SDS011;7666;50.920;4.628;2023-02-26T13:03:16;1.30;;;0.60;;
15130;SDS011;7666;50.920;4.628;2023-02-26T13:12:27;1.20;;;0.80;;
15130;SDS011;7666;50.920;4.628;2023-02-26T13:19:02;4.33;;;1.10;;
15130;SDS011;7666;50.920;4.628;2023-02-26T13:21:51;1.60;;;1.00;;
15130;SDS011;7666;50.920;4.628;2023-02-26T13:24:43;2.87;;;1.53;;
15130;SDS011;7666;50.920;4.628;2023-02-26T13:27:35;1.10;;;0.80;;
15130;SDS011;7666;50.920;4.628;2023-02-26T13:30:27;1.90;;;0.83;;
15130;SDS011;7666;50.920;4.628;2023-02-26T13:33:30;3.13;;;1.00;;
15130;SDS011;7666;50.920;4.628;2023-02-26T13:36:17;1.67;;;0.80;;
15130;SDS011;7666;50.920;4.628;2023-02-26T13:48:19;1.43;;;0.70;;
15130;SDS011;7666;50.920;4.628;2023-02-26T13:54:42;3.43;;;1.00;;
15130;SDS011;7666;50.920;4.628;2023-02-26T14:00:35;3.03;;;0.83;;
15130;SDS011;7666;50.920;4.628;2023-02-26T14:03:31;1.40;;;0.80;;
15130;SDS011;7666;50.920;4.628;2023-02-26T14:09:29;3.47;;;1.00;;
15130;SDS011;7666;50.920;4.628;2023-02-26T14:12:41;2.17;;;0.83;;
15130;SDS011;7666;50.920;4.628;2023-02-26T14:15:30;1.87;;;1.00;;
15130;SDS011;7666;50.920;4.628;2023-02-26T14:18:29;1.73;;;1.13;;
15130;SDS011;7666;50.920;4.628;2023-02-26T14:24:13;1.33;;;0.70;;
15130;SDS011;7666;50.920;4.628;2023-02-26T14:35:50;1.20;;;0.87;;
15130;SDS011;7666;50.920;4.628;2023-02-26T14:38:38;2.00;;;0.80;;
15130;SDS011;7666;50.920;4.628;2023-02-26T14:41:30;5.13;;;1.23;;
15130;SDS011;7666;50.920;4.628;2023-02-26T14:44:25;2.87;;;1.00;;
15130;SDS011;7666;50.920;4.628;2023-02-26T14:47:14;1.10;;;0.80;;
15130;SDS011;7666;50.920;4.628;2023-02-26T14:50:00;2.67;;;1.00;;
15130;SDS011;7666;50.920;4.628;2023-02-26T14:52:51;1.73;;;0.83;;
15130;SDS011;7666;50.920;4.628;2023-02-26T15:05:16;3.93;;;0.90;;
15130;SDS011;7666;50.920;4.628;2023-02-26T15:08:33;1.77;;;0.87;;
15130;SDS011;7666;50.920;4.628;2023-02-26T15:17:25;3.27;;;1.00;;
15130;SDS011;7666;50.920;4.628;2023-02-26T15:26:23;1.60;;;0.90;;
15130;SDS011;7666;50.920;4.628;2023-02-26T15:29:13;1.53;;;0.87;;
15130;SDS011;7666;50.920;4.628;2023-02-26T15:32:05;2.07;;;1.00;;
15130;SDS011;7666;50.920;4.628;2023-02-26T15:35:17;5.77;;;1.00;;
15130;SDS011;7666;50.920;4.628;2023-02-26T15:38:05;4.50;;;1.10;;
15130;SDS011;7666;50.920;4.628;2023-02-26T15:40:52;1.90;;;0.70;;
15130;SDS011;7666;50.920;4.628;2023-02-26T15:43:43;1.40;;;0.80;;
15130;SDS011;7666;50.920;4.628;2023-02-26T15:46:36;1.63;;;0.80;;
15130;SDS011;7666;50.920;4.628;2023-02-26T15:49:33;0.70;;;0.70;;
15130;SDS011;7666;50.920;4.628;2023-02-26T15:52:27;2.10;;;0.90;;
15130;SDS011;7666;50.920;4.628;2023-02-26T15:55:15;1.93;;;1.10;;
15130;SDS011;7666;50.920;4.628;2023-02-26T15:58:03;1.87;;;0.80;;
15130;SDS011;7666;50.920;4.628;2023-02-26T16:00:53;2.30;;;0.93;;
15130;SDS011;7666;50.920;4.628;2023-02-26T16:03:40;1.73;;;0.80;;
15130;SDS011;7666;50.920;4.628;2023-02-26T16:06:36;2.93;;;0.90;;
15130;SDS011;7666;50.920;4.628;2023-02-26T16:09:28;1.70;;;0.87;;
15130;SDS011;7666;50.920;4.628;2023-02-26T16:12:33;1.90;;;0.90;;
15130;SDS011;7666;50.920;4.628;2023-02-26T16:15:29;2.03;;;0.80;;
15130;SDS011;7666;50.920;4.628;2023-02-26T16:18:20;1.20;;;0.83;;
15130;SDS011;7666;50.920;4.628;2023-02-26T16:21:08;3.20;;;0.73;;
15130;SDS011;7666;50.920;4.628;2023-02-26T16:24:02;2.03;;;1.00;;
15130;SDS011;7666;50.920;4.628;2023-02-26T16:26:55;2.63;;;1.00;;
15130;SDS011;7666;50.920;4.628;2023-02-26T16:29:49;1.83;;;1.00;;
15130;SDS011;7666;50.920;4.628;2023-02-26T16:32:37;2.43;;;1.67;;
15130;SDS011;7666;50.920;4.628;2023-02-26T16:35:27;3.03;;;1.90;;
15130;SDS011;7666;50.920;4.628;2023-02-26T16:38:29;6.37;;;1.67;;
15130;SDS011;7666;50.920;4.628;2023-02-26T16:41:20;3.83;;;2.10;;
15130;SDS011;7666;50.920;4.628;2023-02-26T16:47:14;2.30;;;1.03;;
15130;SDS011;7666;50.920;4.628;2023-02-26T16:50:02;1.63;;;1.00;;
15130;SDS011;7666;50.920;4.628;2023-02-26T16:53:04;1.60;;;0.90;;
15130;SDS011;7666;50.920;4.628;2023-02-26T16:55:51;4.33;;;1.40;;
15130;SDS011;7666;50.920;4.628;2023-02-26T16:58:40;4.47;;;1.53;;
15130;SDS011;7666;50.920;4.628;2023-02-26T17:01:26;4.50;;;1.57;;
15130;SDS011;7666;50.920;4.628;2023-02-26T17:04:13;2.77;;;1.40;;
15130;SDS011;7666;50.920;4.628;2023-02-26T17:07:04;2.87;;;1.60;;
15130;SDS011;7666;50.920;4.628;2023-02-26T17:10:04;4.40;;;1.70;;
15130;SDS011;7666;50.920;4.628;2023-02-26T17:13:00;4.03;;;1.90;;
15130;SDS011;7666;50.920;4.628;2023-02-26T17:15:49;3.70;;;1.83;;
15130;SDS011;7666;50.920;4.628;2023-02-26T17:18:35;4.53;;;2.57;;
15130;SDS011;7666;50.920;4.628;2023-02-26T17:21:21;5.27;;;2.57;;
15130;SDS011;7666;50.920;4.628;2023-02-26T17:24:08;3.60;;;2.13;;
15130;SDS011;7666;50.920;4.628;2023-02-26T17:27:00;5.33;;;2.00;;
15130;SDS011;7666;50.920;4.628;2023-02-26T17:29:48;2.60;;;1.50;;
15130;SDS011;7666;50.920;4.628;2023-02-26T17:32:35;3.10;;;1.57;;
15130;SDS011;7666;50.920;4.628;2023-02-26T17:35:21;5.47;;;1.57;;
15130;SDS011;7666;50.920;4.628;2023-02-26T17:38:08;2.93;;;1.60;;
15130;SDS011;7666;50.920;4.628;2023-02-26T17:40:57;3.50;;;1.70;;
15130;SDS011;7666;50.920;4.628;2023-02-26T17:43:44;3.30;;;1.60;;
15130;SDS011;7666;50.920;4.628;2023-02-26T17:46:30;3.40;;;1.50;;
15130;SDS011;7666;50.920;4.628;2023-02-26T17:49:16;3.57;;;1.60;;
15130;SDS011;7666;50.920;4.628;2023-02-26T17:52:02;2.50;;;1.37;;
15130;SDS011;7666;50.920;4.628;2023-02-26T17:54:48;1.87;;;1.23;;
15130;SDS011;7666;50.920;4.628;2023-02-26T17:57:34;2.33;;;1.30;;
15130;SDS011;7666;50.920;4.628;2023-02-26T18:00:20;8.17;;;3.27;;
15130;SDS011;7666;50.920;4.628;2023-02-26T18:03:08;6.63;;;2.70;;
15130;SDS011;7666;50.920;4.628;2023-02-26T18:05:55;12.10;;;4.47;;
15130;SDS011;7666;50.920;4.628;2023-02-26T18:08:42;19.70;;;7.00;;
15130;SDS011;7666;50.920;4.628;2023-02-26T18:11:29;31.17;;;10.20;;
15130;SDS011;7666;50.920;4.628;2023-02-26T18:14:15;27.97;;;9.60;;
15130;SDS011;7666;50.920;4.628;2023-02-26T18:17:01;17.43;;;5.50;;
15130;SDS011;7666;50.920;4.628;2023-02-26T18:19:47;9.03;;;3.30;;
15130;SDS011;7666;50.920;4.628;2023-02-26T18:22:34;9.47;;;3.10;;
15130;SDS011;7666;50.920;4.628;2023-02-26T18:25:20;8.80;;;2.67;;
15130;SDS011;7666;50.920;4.628;2023-02-26T18:28:09;4.50;;;2.20;;
15130;SDS011;7666;50.920;4.628;2023-02-26T18:31:08;3.70;;;2.13;;
15130;SDS011;7666;50.920;4.628;2023-02-26T18:33:54;6.20;;;2.60;;
15130;SDS011;7666;50.920;4.628;2023-02-26T18:36:40;3.30;;;2.13;;
15130;SDS011;7666;50.920;4.628;2023-02-26T18:39:26;3.07;;;2.00;;
15130;SDS011;7666;50.920;4.628;2023-02-26T18:42:21;14.27;;;5.53;;
15130;SDS011;7666;50.920;4.628;2023-02-26T18:45:09;10.00;;;4.93;;
15130;SDS011;7666;50.920;4.628;2023-02-26T18:47:55;6.23;;;3.80;;
15130;SDS011;7666;50.920;4.628;2023-02-26T18:50:42;4.77;;;3.23;;
15130;SDS011;7666;50.920;4.628;2023-02-26T18:53:28;6.90;;;4.57;;
15130;SDS011;7666;50.920;4.628;2023-02-26T18:56:14;6.73;;;4.60;;
15130;SDS011;7666;50.920;4.628;2023-02-26T18:59:01;5.70;;;4.33;;
15130;SDS011;7666;50.920;4.628;2023-02-26T19:01:47;5.90;;;4.03;;
15130;SDS011;7666;50.920;4.628;2023-02-26T19:04:33;7.13;;;4.20;;
15130;SDS011;7666;50.920;4.628;2023-02-26T19:07:19;6.27;;;4.33;;
15130;SDS011;7666;50.920;4.628;2023-02-26T19:10:05;5.53;;;3.57;;
15130;SDS011;7666;50.920;4.628;2023-02-26T19:12:53;5.77;;;2.70;;
15130;SDS011;7666;50.920;4.628;2023-02-26T19:15:39;4.03;;;2.27;;
15130;SDS011;7666;50.920;4.628;2023-02-26T19:18:25;7.10;;;2.90;;
15130;SDS011;7666;50.920;4.628;2023-02-26T19:21:11;4.17;;;2.50;;
15130;SDS011;7666;50.920;4.628;2023-02-26T19:23:57;4.80;;;2.77;;
15130;SDS011;7666;50.920;4.628;2023-02-26T19:26:48;6.00;;;3.10;;
15130;SDS011;7666;50.920;4.628;2023-02-26T19:29:35;4.73;;;2.73;;
15130;SDS011;7666;50.920;4.628;2023-02-26T19:32:21;4.40;;;2.50;;
15130;SDS011;7666;50.920;4.628;2023-02-26T19:35:07;3.83;;;2.50;;
15130;SDS011;7666;50.920;4.628;2023-02-26T19:37:54;4.33;;;2.70;;
15130;SDS011;7666;50.920;4.628;2023-02-26T19:40:40;5.07;;;2.83;;
15130;SDS011;7666;50.920;4.628;2023-02-26T19:43:26;5.37;;;3.17;;
15130;SDS011;7666;50.920;4.628;2023-02-26T19:46:12;5.03;;;3.03;;
15130;SDS011;7666;50.920;4.628;2023-02-26T19:48:59;5.20;;;3.17;;
15130;SDS011;7666;50.920;4.628;2023-02-26T19:51:45;6.13;;;3.13;;
15130;SDS011;7666;50.920;4.628;2023-02-26T19:54:31;5.67;;;3.30;;
15130;SDS011;7666;50.920;4.628;2023-02-26T19:57:17;10.23;;;4.40;;
15130;SDS011;7666;50.920;4.628;2023-02-26T20:00:04;6.33;;;2.80;;